Terminal Aerodrome Forecast
Issued by NWS

Home | Current Version | Previous Version | Text Only | Print | Product List | Glossary On
Versions: 1 2 3 4 5 6 7 8 9 10 11 12 13 14
000
FTUS42 TJSJ 211700 RRA
TAFJMZ
TAF
TJMZ 211756Z 2118/2218 27010G15KT P6SM VCTS SCT030CB BKN050
      TEMPO 2118/2121 2SM TSRA BKN025CB
     FM212200 06005KT P6SM SCT025 SCT040
     FM221530 27010KT P6SM SCT025 BKN040
      AMD NOT SKED 2123/2211=

USA.gov is the U.S. government's official web portal to all federal, state and local government web resources and services.